sensor_id;sensor_type;location;lat;lon;timestamp;P1;durP1;ratioP1;P2;durP2;ratioP2
58484;SDS011;44268;43.138;0.072;2022-08-01T00:00:26;3.80;;;3.42;;
58484;SDS011;44268;43.138;0.072;2022-08-01T00:02:52;3.92;;;3.20;;
58484;SDS011;44268;43.138;0.072;2022-08-01T00:05:18;3.33;;;3.03;;
58484;SDS011;44268;43.138;0.072;2022-08-01T00:07:45;2.90;;;2.70;;
58484;SDS011;44268;43.138;0.072;2022-08-01T00:10:11;3.95;;;3.08;;
58484;SDS011;44268;43.138;0.072;2022-08-01T00:12:38;3.75;;;3.33;;
58484;SDS011;44268;43.138;0.072;2022-08-01T00:15:05;5.43;;;3.35;;
58484;SDS011;44268;43.138;0.072;2022-08-01T00:17:32;3.85;;;3.55;;
58484;SDS011;44268;43.138;0.072;2022-08-01T00:19:58;3.38;;;3.08;;
58484;SDS011;44268;43.138;0.072;2022-08-01T00:22:24;4.05;;;3.85;;
58484;SDS011;44268;43.138;0.072;2022-08-01T00:24:50;3.67;;;3.38;;
58484;SDS011;44268;43.138;0.072;2022-08-01T00:27:16;3.42;;;2.72;;
58484;SDS011;44268;43.138;0.072;2022-08-01T00:29:42;3.55;;;3.22;;
58484;SDS011;44268;43.138;0.072;2022-08-01T00:32:08;4.38;;;2.92;;
58484;SDS011;44268;43.138;0.072;2022-08-01T00:34:34;4.22;;;2.90;;
58484;SDS011;44268;43.138;0.072;2022-08-01T00:37:01;3.58;;;3.30;;
58484;SDS011;44268;43.138;0.072;2022-08-01T00:39:27;6.00;;;3.20;;
58484;SDS011;44268;43.138;0.072;2022-08-01T00:41:53;4.00;;;3.70;;
58484;SDS011;44268;43.138;0.072;2022-08-01T00:44:19;3.17;;;2.95;;
58484;SDS011;44268;43.138;0.072;2022-08-01T00:46:45;5.80;;;4.38;;
58484;SDS011;44268;43.138;0.072;2022-08-01T00:49:11;3.85;;;3.30;;
58484;SDS011;44268;43.138;0.072;2022-08-01T00:51:37;4.35;;;3.10;;
58484;SDS011;44268;43.138;0.072;2022-08-01T00:54:04;3.97;;;3.53;;
58484;SDS011;44268;43.138;0.072;2022-08-01T00:56:30;4.05;;;3.40;;
58484;SDS011;44268;43.138;0.072;2022-08-01T00:58:56;4.13;;;3.15;;
58484;SDS011;44268;43.138;0.072;2022-08-01T01:01:22;6.20;;;3.45;;
58484;SDS011;44268;43.138;0.072;2022-08-01T01:03:49;3.53;;;3.33;;
58484;SDS011;44268;43.138;0.072;2022-08-01T01:06:34;3.00;;;2.80;;
58484;SDS011;44268;43.138;0.072;2022-08-01T01:11:54;4.85;;;4.40;;
58484;SDS011;44268;43.138;0.072;2022-08-01T01:14:27;4.03;;;3.72;;
58484;SDS011;44268;43.138;0.072;2022-08-01T01:16:55;5.07;;;4.05;;
58484;SDS011;44268;43.138;0.072;2022-08-01T01:19:24;3.90;;;3.60;;
58484;SDS011;44268;43.138;0.072;2022-08-01T01:27:05;3.88;;;3.40;;
58484;SDS011;44268;43.138;0.072;2022-08-01T01:32:02;4.25;;;3.85;;
58484;SDS011;44268;43.138;0.072;2022-08-01T01:34:31;4.13;;;3.80;;
58484;SDS011;44268;43.138;0.072;2022-08-01T01:36:58;4.03;;;3.63;;
58484;SDS011;44268;43.138;0.072;2022-08-01T01:39:25;5.20;;;4.80;;
58484;SDS011;44268;43.138;0.072;2022-08-01T01:41:53;3.80;;;3.28;;
58484;SDS011;44268;43.138;0.072;2022-08-01T01:44:20;3.60;;;3.35;;
58484;SDS011;44268;43.138;0.072;2022-08-01T01:46:47;5.78;;;3.92;;
58484;SDS011;44268;43.138;0.072;2022-08-01T01:49:14;4.03;;;3.70;;
58484;SDS011;44268;43.138;0.072;2022-08-01T01:51:42;4.38;;;4.05;;
58484;SDS011;44268;43.138;0.072;2022-08-01T01:54:09;4.68;;;4.28;;
58484;SDS011;44268;43.138;0.072;2022-08-01T01:56:35;5.30;;;4.32;;
58484;SDS011;44268;43.138;0.072;2022-08-01T01:59:13;4.23;;;3.93;;
58484;SDS011;44268;43.138;0.072;2022-08-01T02:01:41;6.70;;;4.05;;
58484;SDS011;44268;43.138;0.072;2022-08-01T02:04:07;5.30;;;3.60;;
58484;SDS011;44268;43.138;0.072;2022-08-01T02:06:34;4.00;;;3.70;;
58484;SDS011;44268;43.138;0.072;2022-08-01T02:09:00;4.25;;;3.95;;
58484;SDS011;44268;43.138;0.072;2022-08-01T02:11:27;4.45;;;4.07;;
58484;SDS011;44268;43.138;0.072;2022-08-01T02:13:58;4.05;;;2.97;;
58484;SDS011;44268;43.138;0.072;2022-08-01T02:16:25;4.30;;;3.90;;
58484;SDS011;44268;43.138;0.072;2022-08-01T02:18:51;3.63;;;3.33;;
58484;SDS011;44268;43.138;0.072;2022-08-01T02:21:20;3.60;;;3.30;;
58484;SDS011;44268;43.138;0.072;2022-08-01T02:23:49;4.72;;;3.13;;
58484;SDS011;44268;43.138;0.072;2022-08-01T02:26:16;4.10;;;3.47;;
58484;SDS011;44268;43.138;0.072;2022-08-01T02:28:51;4.95;;;3.53;;
58484;SDS011;44268;43.138;0.072;2022-08-01T02:31:19;7.68;;;4.20;;
58484;SDS011;44268;43.138;0.072;2022-08-01T02:33:46;3.00;;;2.57;;
58484;SDS011;44268;43.138;0.072;2022-08-01T02:36:14;3.88;;;2.75;;
58484;SDS011;44268;43.138;0.072;2022-08-01T02:38:42;3.50;;;3.20;;
58484;SDS011;44268;43.138;0.072;2022-08-01T02:41:13;3.50;;;3.20;;
58484;SDS011;44268;43.138;0.072;2022-08-01T02:43:43;4.07;;;3.63;;
58484;SDS011;44268;43.138;0.072;2022-08-01T02:46:14;3.92;;;3.15;;
58484;SDS011;44268;43.138;0.072;2022-08-01T02:48:41;3.75;;;3.45;;
58484;SDS011;44268;43.138;0.072;2022-08-01T02:51:08;3.90;;;3.60;;
58484;SDS011;44268;43.138;0.072;2022-08-01T02:53:35;3.63;;;3.33;;
58484;SDS011;44268;43.138;0.072;2022-08-01T02:56:04;2.92;;;2.72;;
58484;SDS011;44268;43.138;0.072;2022-08-01T02:58:30;3.53;;;2.53;;
58484;SDS011;44268;43.138;0.072;2022-08-01T03:00:57;3.55;;;3.35;;
58484;SDS011;44268;43.138;0.072;2022-08-01T03:03:24;4.32;;;3.92;;
58484;SDS011;44268;43.138;0.072;2022-08-01T03:05:50;3.80;;;3.47;;
58484;SDS011;44268;43.138;0.072;2022-08-01T03:08:16;5.70;;;3.15;;
58484;SDS011;44268;43.138;0.072;2022-08-01T03:10:44;3.03;;;2.85;;
58484;SDS011;44268;43.138;0.072;2022-08-01T03:13:11;3.65;;;3.42;;
58484;SDS011;44268;43.138;0.072;2022-08-01T03:15:38;3.25;;;3.00;;
58484;SDS011;44268;43.138;0.072;2022-08-01T03:18:06;3.80;;;3.50;;
58484;SDS011;44268;43.138;0.072;2022-08-01T03:20:32;3.30;;;3.00;;
58484;SDS011;44268;43.138;0.072;2022-08-01T03:23:03;4.25;;;2.88;;
58484;SDS011;44268;43.138;0.072;2022-08-01T03:25:30;3.75;;;3.45;;
58484;SDS011;44268;43.138;0.072;2022-08-01T03:27:58;3.43;;;3.13;;
58484;SDS011;44268;43.138;0.072;2022-08-01T03:30:25;3.63;;;3.35;;
58484;SDS011;44268;43.138;0.072;2022-08-01T03:32:52;3.87;;;3.23;;
58484;SDS011;44268;43.138;0.072;2022-08-01T03:35:18;4.30;;;4.00;;
58484;SDS011;44268;43.138;0.072;2022-08-01T03:37:45;7.25;;;3.45;;
58484;SDS011;44268;43.138;0.072;2022-08-01T03:40:25;3.35;;;3.05;;
58484;SDS011;44268;43.138;0.072;2022-08-01T03:42:56;3.75;;;3.50;;
58484;SDS011;44268;43.138;0.072;2022-08-01T03:45:28;3.50;;;3.20;;
58484;SDS011;44268;43.138;0.072;2022-08-01T03:47:59;3.50;;;3.20;;
58484;SDS011;44268;43.138;0.072;2022-08-01T03:50:25;4.55;;;3.88;;
58484;SDS011;44268;43.138;0.072;2022-08-01T03:52:53;3.17;;;2.88;;
58484;SDS011;44268;43.138;0.072;2022-08-01T03:55:20;3.40;;;3.10;;
58484;SDS011;44268;43.138;0.072;2022-08-01T03:57:47;3.33;;;3.08;;
58484;SDS011;44268;43.138;0.072;2022-08-01T04:00:14;4.30;;;3.30;;
58484;SDS011;44268;43.138;0.072;2022-08-01T04:02:43;3.55;;;3.25;;
58484;SDS011;44268;43.138;0.072;2022-08-01T04:05:10;3.72;;;3.42;;
58484;SDS011;44268;43.138;0.072;2022-08-01T04:07:37;3.85;;;3.42;;
58484;SDS011;44268;43.138;0.072;2022-08-01T04:10:08;3.63;;;2.47;;
58484;SDS011;44268;43.138;0.072;2022-08-01T04:12:34;3.95;;;3.65;;
58484;SDS011;44268;43.138;0.072;2022-08-01T04:15:00;3.60;;;3.30;;
58484;SDS011;44268;43.138;0.072;2022-08-01T04:17:26;4.47;;;3.08;;
58484;SDS011;44268;43.138;0.072;2022-08-01T04:19:52;5.25;;;3.58;;
58484;SDS011;44268;43.138;0.072;2022-08-01T04:22:18;5.45;;;3.67;;
58484;SDS011;44268;43.138;0.072;2022-08-01T04:24:46;4.35;;;3.38;;
58484;SDS011;44268;43.138;0.072;2022-08-01T04:27:20;4.25;;;3.58;;
58484;SDS011;44268;43.138;0.072;2022-08-01T04:29:46;3.97;;;3.55;;
58484;SDS011;44268;43.138;0.072;2022-08-01T04:32:15;4.15;;;3.80;;
58484;SDS011;44268;43.138;0.072;2022-08-01T04:34:41;4.30;;;3.95;;
58484;SDS011;44268;43.138;0.072;2022-08-01T04:37:11;3.90;;;3.58;;
58484;SDS011;44268;43.138;0.072;2022-08-01T04:39:38;4.57;;;4.17;;
58484;SDS011;44268;43.138;0.072;2022-08-01T04:42:05;4.82;;;4.43;;
58484;SDS011;44268;43.138;0.072;2022-08-01T04:44:32;11.02;;;3.83;;
58484;SDS011;44268;43.138;0.072;2022-08-01T04:46:59;3.88;;;3.58;;
58484;SDS011;44268;43.138;0.072;2022-08-01T04:49:26;4.43;;;3.80;;
58484;SDS011;44268;43.138;0.072;2022-08-01T04:51:53;6.45;;;4.82;;
58484;SDS011;44268;43.138;0.072;2022-08-01T04:54:25;4.55;;;3.85;;
58484;SDS011;44268;43.138;0.072;2022-08-01T04:56:51;4.97;;;4.47;;
58484;SDS011;44268;43.138;0.072;2022-08-01T04:59:18;4.32;;;3.92;;
58484;SDS011;44268;43.138;0.072;2022-08-01T05:02:03;6.88;;;4.80;;
58484;SDS011;44268;43.138;0.072;2022-08-01T05:04:29;5.38;;;3.78;;
58484;SDS011;44268;43.138;0.072;2022-08-01T05:06:55;4.85;;;4.47;;
58484;SDS011;44268;43.138;0.072;2022-08-01T05:09:21;5.15;;;4.15;;
58484;SDS011;44268;43.138;0.072;2022-08-01T05:11:47;5.07;;;4.57;;
58484;SDS011;44268;43.138;0.072;2022-08-01T05:14:13;5.70;;;4.50;;
58484;SDS011;44268;43.138;0.072;2022-08-01T05:16:40;6.30;;;4.63;;
58484;SDS011;44268;43.138;0.072;2022-08-01T05:19:06;4.60;;;3.83;;
58484;SDS011;44268;43.138;0.072;2022-08-01T05:21:33;4.32;;;3.67;;
58484;SDS011;44268;43.138;0.072;2022-08-01T05:23:59;3.85;;;3.50;;
58484;SDS011;44268;43.138;0.072;2022-08-01T05:26:25;5.25;;;4.22;;
58484;SDS011;44268;43.138;0.072;2022-08-01T05:28:51;5.70;;;5.20;;
58484;SDS011;44268;43.138;0.072;2022-08-01T05:31:18;6.88;;;5.25;;
58484;SDS011;44268;43.138;0.072;2022-08-01T05:33:44;6.45;;;5.55;;
58484;SDS011;44268;43.138;0.072;2022-08-01T05:36:10;5.80;;;5.05;;
58484;SDS011;44268;43.138;0.072;2022-08-01T05:38:36;21.48;;;8.48;;
58484;SDS011;44268;43.138;0.072;2022-08-01T05:41:02;7.03;;;5.43;;
58484;SDS011;44268;43.138;0.072;2022-08-01T05:43:28;8.52;;;5.97;;
58484;SDS011;44268;43.138;0.072;2022-08-01T05:45:54;5.57;;;4.90;;
58484;SDS011;44268;43.138;0.072;2022-08-01T05:48:20;5.85;;;5.35;;
58484;SDS011;44268;43.138;0.072;2022-08-01T05:50:46;5.90;;;5.30;;
58484;SDS011;44268;43.138;0.072;2022-08-01T05:53:12;8.02;;;5.20;;
58484;SDS011;44268;43.138;0.072;2022-08-01T05:55:39;8.45;;;6.18;;
58484;SDS011;44268;43.138;0.072;2022-08-01T05:58:05;8.75;;;5.78;;
58484;SDS011;44268;43.138;0.072;2022-08-01T06:00:31;15.45;;;6.22;;
58484;SDS011;44268;43.138;0.072;2022-08-01T06:02:57;7.35;;;6.28;;
58484;SDS011;44268;43.138;0.072;2022-08-01T06:05:23;7.60;;;6.22;;
58484;SDS011;44268;43.138;0.072;2022-08-01T06:07:49;7.07;;;5.93;;
58484;SDS011;44268;43.138;0.072;2022-08-01T06:10:15;6.00;;;5.43;;
58484;SDS011;44268;43.138;0.072;2022-08-01T06:12:41;6.50;;;5.72;;
58484;SDS011;44268;43.138;0.072;2022-08-01T06:15:08;8.20;;;6.30;;
58484;SDS011;44268;43.138;0.072;2022-08-01T06:17:35;7.60;;;6.33;;
58484;SDS011;44268;43.138;0.072;2022-08-01T06:20:01;10.23;;;5.80;;
58484;SDS011;44268;43.138;0.072;2022-08-01T06:22:27;8.68;;;6.53;;
58484;SDS011;44268;43.138;0.072;2022-08-01T06:24:53;7.47;;;6.75;;
58484;SDS011;44268;43.138;0.072;2022-08-01T06:27:19;10.02;;;6.13;;
58484;SDS011;44268;43.138;0.072;2022-08-01T06:29:45;8.13;;;6.15;;
58484;SDS011;44268;43.138;0.072;2022-08-01T06:32:11;6.43;;;5.70;;
58484;SDS011;44268;43.138;0.072;2022-08-01T06:34:38;6.78;;;6.15;;
58484;SDS011;44268;43.138;0.072;2022-08-01T06:37:04;6.63;;;6.03;;
58484;SDS011;44268;43.138;0.072;2022-08-01T06:39:30;6.45;;;5.32;;
58484;SDS011;44268;43.138;0.072;2022-08-01T06:41:56;5.97;;;5.32;;
58484;SDS011;44268;43.138;0.072;2022-08-01T06:44:22;7.47;;;5.68;;
58484;SDS011;44268;43.138;0.072;2022-08-01T06:46:48;6.57;;;5.88;;
58484;SDS011;44268;43.138;0.072;2022-08-01T06:49:14;7.85;;;6.13;;
58484;SDS011;44268;43.138;0.072;2022-08-01T06:51:40;7.60;;;5.85;;
58484;SDS011;44268;43.138;0.072;2022-08-01T06:54:06;6.82;;;6.00;;
58484;SDS011;44268;43.138;0.072;2022-08-01T06:56:32;5.57;;;5.00;;
58484;SDS011;44268;43.138;0.072;2022-08-01T06:59:00;7.22;;;6.32;;
58484;SDS011;44268;43.138;0.072;2022-08-01T07:01:29;6.53;;;5.93;;
58484;SDS011;44268;43.138;0.072;2022-08-01T07:03:55;6.80;;;6.18;;
58484;SDS011;44268;43.138;0.072;2022-08-01T07:06:22;7.15;;;5.47;;
58484;SDS011;44268;43.138;0.072;2022-08-01T07:08:48;5.65;;;5.05;;
58484;SDS011;44268;43.138;0.072;2022-08-01T07:11:14;6.53;;;5.88;;
58484;SDS011;44268;43.138;0.072;2022-08-01T07:13:40;7.57;;;6.38;;
58484;SDS011;44268;43.138;0.072;2022-08-01T07:16:06;5.80;;;5.20;;
58484;SDS011;44268;43.138;0.072;2022-08-01T07:18:32;6.35;;;5.75;;
58484;SDS011;44268;43.138;0.072;2022-08-01T07:20:58;6.47;;;5.95;;
58484;SDS011;44268;43.138;0.072;2022-08-01T07:23:25;6.53;;;5.75;;
58484;SDS011;44268;43.138;0.072;2022-08-01T07:25:51;6.15;;;5.55;;
58484;SDS011;44268;43.138;0.072;2022-08-01T07:28:17;7.97;;;6.18;;
58484;SDS011;44268;43.138;0.072;2022-08-01T07:30:43;6.65;;;5.95;;
58484;SDS011;44268;43.138;0.072;2022-08-01T07:33:10;6.32;;;5.72;;
58484;SDS011;44268;43.138;0.072;2022-08-01T07:35:36;6.80;;;6.10;;
58484;SDS011;44268;43.138;0.072;2022-08-01T07:40:30;5.90;;;5.30;;
58484;SDS011;44268;43.138;0.072;2022-08-01T07:42:56;5.93;;;5.22;;
58484;SDS011;44268;43.138;0.072;2022-08-01T07:45:22;7.75;;;5.57;;
58484;SDS011;44268;43.138;0.072;2022-08-01T07:47:48;4.93;;;4.53;;
58484;SDS011;44268;43.138;0.072;2022-08-01T07:50:14;5.90;;;5.18;;
58484;SDS011;44268;43.138;0.072;2022-08-01T07:52:41;6.25;;;5.25;;
58484;SDS011;44268;43.138;0.072;2022-08-01T07:55:07;5.35;;;5.00;;
58484;SDS011;44268;43.138;0.072;2022-08-01T07:57:33;5.53;;;4.88;;
58484;SDS011;44268;43.138;0.072;2022-08-01T08:00:00;5.43;;;4.93;;
58484;SDS011;44268;43.138;0.072;2022-08-01T08:02:26;5.78;;;5.13;;
58484;SDS011;44268;43.138;0.072;2022-08-01T08:04:52;16.42;;;8.05;;
58484;SDS011;44268;43.138;0.072;2022-08-01T08:07:18;4.90;;;4.45;;
58484;SDS011;44268;43.138;0.072;2022-08-01T08:09:44;5.55;;;4.72;;
58484;SDS011;44268;43.138;0.072;2022-08-01T08:12:10;5.13;;;4.70;;
58484;SDS011;44268;43.138;0.072;2022-08-01T08:14:37;5.45;;;4.97;;
58484;SDS011;44268;43.138;0.072;2022-08-01T08:17:03;5.57;;;4.85;;
58484;SDS011;44268;43.138;0.072;2022-08-01T08:19:30;5.07;;;4.68;;
58484;SDS011;44268;43.138;0.072;2022-08-01T08:21:58;6.75;;;4.45;;
58484;SDS011;44268;43.138;0.072;2022-08-01T08:24:24;4.57;;;4.20;;
58484;SDS011;44268;43.138;0.072;2022-08-01T08:26:52;6.88;;;4.82;;
58484;SDS011;44268;43.138;0.072;2022-08-01T08:29:19;5.80;;;5.20;;
58484;SDS011;44268;43.138;0.072;2022-08-01T08:31:46;16.50;;;7.22;;
58484;SDS011;44268;43.138;0.072;2022-08-01T08:34:12;11.27;;;5.88;;
58484;SDS011;44268;43.138;0.072;2022-08-01T08:36:40;8.25;;;6.28;;
58484;SDS011;44268;43.138;0.072;2022-08-01T08:39:06;5.90;;;5.13;;
58484;SDS011;44268;43.138;0.072;2022-08-01T08:41:33;20.20;;;7.53;;
58484;SDS011;44268;43.138;0.072;2022-08-01T08:44:07;4.80;;;4.50;;
58484;SDS011;44268;43.138;0.072;2022-08-01T08:46:33;5.15;;;4.75;;
58484;SDS011;44268;43.138;0.072;2022-08-01T08:49:02;5.45;;;5.00;;
58484;SDS011;44268;43.138;0.072;2022-08-01T08:51:30;4.90;;;4.50;;
58484;SDS011;44268;43.138;0.072;2022-08-01T08:53:57;5.03;;;4.63;;
58484;SDS011;44268;43.138;0.072;2022-08-01T08:56:24;5.32;;;4.40;;
58484;SDS011;44268;43.138;0.072;2022-08-01T08:58:50;5.20;;;4.80;;
58484;SDS011;44268;43.138;0.072;2022-08-01T09:01:17;7.05;;;4.97;;
58484;SDS011;44268;43.138;0.072;2022-08-01T09:03:43;5.28;;;4.82;;
58484;SDS011;44268;43.138;0.072;2022-08-01T09:06:10;5.53;;;5.07;;
58484;SDS011;44268;43.138;0.072;2022-08-01T09:08:36;5.97;;;5.38;;
58484;SDS011;44268;43.138;0.072;2022-08-01T09:11:02;5.43;;;5.03;;
58484;SDS011;44268;43.138;0.072;2022-08-01T09:13:29;4.75;;;4.32;;
58484;SDS011;44268;43.138;0.072;2022-08-01T09:15:55;5.10;;;4.65;;
58484;SDS011;44268;43.138;0.072;2022-08-01T09:25:58;4.55;;;4.15;;
58484;SDS011;44268;43.138;0.072;2022-08-01T09:28:30;5.22;;;4.80;;
58484;SDS011;44268;43.138;0.072;2022-08-01T09:30:56;5.22;;;4.72;;
58484;SDS011;44268;43.138;0.072;2022-08-01T09:33:22;5.57;;;5.07;;
58484;SDS011;44268;43.138;0.072;2022-08-01T09:35:55;6.55;;;4.95;;
58484;SDS011;44268;43.138;0.072;2022-08-01T09:38:23;5.05;;;4.70;;
58484;SDS011;44268;43.138;0.072;2022-08-01T09:40:52;5.88;;;4.95;;
58484;SDS011;44268;43.138;0.072;2022-08-01T09:45:45;4.35;;;3.97;;
58484;SDS011;44268;43.138;0.072;2022-08-01T09:48:11;5.85;;;4.72;;
58484;SDS011;44268;43.138;0.072;2022-08-01T09:50:41;5.53;;;4.93;;
58484;SDS011;44268;43.138;0.072;2022-08-01T09:53:08;5.22;;;4.78;;
58484;SDS011;44268;43.138;0.072;2022-08-01T09:55:34;6.47;;;4.97;;
58484;SDS011;44268;43.138;0.072;2022-08-01T09:58:00;5.50;;;4.95;;
58484;SDS011;44268;43.138;0.072;2022-08-01T10:00:26;5.95;;;5.45;;
58484;SDS011;44268;43.138;0.072;2022-08-01T10:02:53;8.30;;;6.20;;
58484;SDS011;44268;43.138;0.072;2022-08-01T10:05:29;7.40;;;5.78;;
58484;SDS011;44268;43.138;0.072;2022-08-01T10:07:56;6.82;;;5.38;;
58484;SDS011;44268;43.138;0.072;2022-08-01T10:10:22;4.93;;;4.47;;
58484;SDS011;44268;43.138;0.072;2022-08-01T10:12:48;5.47;;;5.07;;
58484;SDS011;44268;43.138;0.072;2022-08-01T10:15:17;6.72;;;5.93;;
58484;SDS011;44268;43.138;0.072;2022-08-01T10:17:55;5.80;;;5.30;;
58484;SDS011;44268;43.138;0.072;2022-08-01T10:20:26;6.40;;;4.97;;
58484;SDS011;44268;43.138;0.072;2022-08-01T10:22:53;6.20;;;5.60;;
58484;SDS011;44268;43.138;0.072;2022-08-01T10:25:20;5.60;;;4.90;;
58484;SDS011;44268;43.138;0.072;2022-08-01T10:27:48;5.57;;;5.05;;
58484;SDS011;44268;43.138;0.072;2022-08-01T10:30:14;5.80;;;4.97;;
58484;SDS011;44268;43.138;0.072;2022-08-01T10:32:41;7.50;;;5.45;;
58484;SDS011;44268;43.138;0.072;2022-08-01T10:35:08;6.70;;;5.05;;
58484;SDS011;44268;43.138;0.072;2022-08-01T10:37:39;6.22;;;5.65;;
58484;SDS011;44268;43.138;0.072;2022-08-01T10:40:06;5.88;;;5.35;;
58484;SDS011;44268;43.138;0.072;2022-08-01T10:42:33;5.70;;;5.15;;
58484;SDS011;44268;43.138;0.072;2022-08-01T10:45:00;6.07;;;5.18;;
58484;SDS011;44268;43.138;0.072;2022-08-01T10:47:28;6.47;;;5.15;;
58484;SDS011;44268;43.138;0.072;2022-08-01T10:50:10;7.32;;;6.03;;
58484;SDS011;44268;43.138;0.072;2022-08-01T10:52:37;6.28;;;5.57;;
58484;SDS011;44268;43.138;0.072;2022-08-01T10:55:04;5.82;;;5.03;;
58484;SDS011;44268;43.138;0.072;2022-08-01T10:57:41;6.25;;;5.65;;
58484;SDS011;44268;43.138;0.072;2022-08-01T11:00:08;5.93;;;5.32;;
58484;SDS011;44268;43.138;0.072;2022-08-01T11:02:34;5.70;;;4.75;;
58484;SDS011;44268;43.138;0.072;2022-08-01T11:05:12;6.00;;;5.45;;
58484;SDS011;44268;43.138;0.072;2022-08-01T11:07:46;6.03;;;5.53;;
58484;SDS011;44268;43.138;0.072;2022-08-01T11:12:55;6.50;;;5.38;;
58484;SDS011;44268;43.138;0.072;2022-08-01T11:15:21;6.97;;;5.68;;
58484;SDS011;44268;43.138;0.072;2022-08-01T11:17:51;6.10;;;4.88;;
58484;SDS011;44268;43.138;0.072;2022-08-01T11:20:21;6.72;;;5.57;;
58484;SDS011;44268;43.138;0.072;2022-08-01T11:25:23;6.25;;;5.18;;
58484;SDS011;44268;43.138;0.072;2022-08-01T11:28:04;5.80;;;5.30;;
58484;SDS011;44268;43.138;0.072;2022-08-01T11:30:36;6.80;;;5.80;;
58484;SDS011;44268;43.138;0.072;2022-08-01T11:33:02;6.15;;;5.55;;
58484;SDS011;44268;43.138;0.072;2022-08-01T11:35:28;5.90;;;5.40;;
58484;SDS011;44268;43.138;0.072;2022-08-01T11:37:54;4.88;;;4.47;;
58484;SDS011;44268;43.138;0.072;2022-08-01T11:45:53;5.82;;;5.43;;
58484;SDS011;44268;43.138;0.072;2022-08-01T11:48:26;6.60;;;5.20;;
58484;SDS011;44268;43.138;0.072;2022-08-01T11:50:54;5.78;;;5.28;;
58484;SDS011;44268;43.138;0.072;2022-08-01T11:53:20;5.97;;;5.47;;
58484;SDS011;44268;43.138;0.072;2022-08-01T11:55:50;6.25;;;5.65;;
58484;SDS011;44268;43.138;0.072;2022-08-01T11:58:20;6.00;;;5.38;;
58484;SDS011;44268;43.138;0.072;2022-08-01T12:00:52;6.18;;;5.57;;
58484;SDS011;44268;43.138;0.072;2022-08-01T12:03:25;6.65;;;5.72;;
58484;SDS011;44268;43.138;0.072;2022-08-01T12:05:55;5.82;;;5.22;;
58484;SDS011;44268;43.138;0.072;2022-08-01T12:08:25;7.50;;;5.80;;
58484;SDS011;44268;43.138;0.072;2022-08-01T12:10:51;6.65;;;5.95;;
58484;SDS011;44268;43.138;0.072;2022-08-01T12:13:18;6.15;;;5.65;;
58484;SDS011;44268;43.138;0.072;2022-08-01T12:15:44;6.57;;;5.63;;
58484;SDS011;44268;43.138;0.072;2022-08-01T12:18:11;6.32;;;5.72;;
58484;SDS011;44268;43.138;0.072;2022-08-01T12:20:38;6.70;;;5.40;;
58484;SDS011;44268;43.138;0.072;2022-08-01T12:23:05;7.07;;;6.38;;
58484;SDS011;44268;43.138;0.072;2022-08-01T12:28:02;6.05;;;5.45;;
58484;SDS011;44268;43.138;0.072;2022-08-01T12:30:29;7.22;;;6.57;;
58484;SDS011;44268;43.138;0.072;2022-08-01T12:33:00;7.07;;;6.45;;
58484;SDS011;44268;43.138;0.072;2022-08-01T12:35:27;6.90;;;6.25;;
58484;SDS011;44268;43.138;0.072;2022-08-01T12:40:27;6.70;;;6.10;;
58484;SDS011;44268;43.138;0.072;2022-08-01T12:42:54;5.65;;;5.25;;
58484;SDS011;44268;43.138;0.072;2022-08-01T12:45:24;7.28;;;6.53;;
58484;SDS011;44268;43.138;0.072;2022-08-01T12:47:52;6.28;;;5.70;;
58484;SDS011;44268;43.138;0.072;2022-08-01T12:50:19;7.10;;;6.10;;
58484;SDS011;44268;43.138;0.072;2022-08-01T12:52:46;6.22;;;5.63;;
58484;SDS011;44268;43.138;0.072;2022-08-01T12:55:30;7.18;;;6.57;;
58484;SDS011;44268;43.138;0.072;2022-08-01T12:58:06;6.15;;;5.65;;
58484;SDS011;44268;43.138;0.072;2022-08-01T13:00:33;6.30;;;5.70;;
58484;SDS011;44268;43.138;0.072;2022-08-01T13:03:01;6.35;;;5.85;;
58484;SDS011;44268;43.138;0.072;2022-08-01T13:05:27;5.47;;;5.05;;
58484;SDS011;44268;43.138;0.072;2022-08-01T13:07:53;6.07;;;5.57;;
58484;SDS011;44268;43.138;0.072;2022-08-01T13:10:26;6.00;;;5.40;;
58484;SDS011;44268;43.138;0.072;2022-08-01T13:12:54;6.07;;;5.55;;
58484;SDS011;44268;43.138;0.072;2022-08-01T13:17:47;5.53;;;5.07;;
58484;SDS011;44268;43.138;0.072;2022-08-01T13:20:23;5.65;;;5.22;;
58484;SDS011;44268;43.138;0.072;2022-08-01T13:22:49;7.07;;;6.38;;
58484;SDS011;44268;43.138;0.072;2022-08-01T13:25:16;6.57;;;5.93;;
58484;SDS011;44268;43.138;0.072;2022-08-01T13:27:42;5.68;;;5.10;;
58484;SDS011;44268;43.138;0.072;2022-08-01T13:30:18;6.63;;;6.03;;
58484;SDS011;44268;43.138;0.072;2022-08-01T13:32:58;7.70;;;5.85;;
58484;SDS011;44268;43.138;0.072;2022-08-01T13:35:24;6.53;;;5.93;;
58484;SDS011;44268;43.138;0.072;2022-08-01T13:37:50;7.38;;;5.93;;
58484;SDS011;44268;43.138;0.072;2022-08-01T13:40:26;6.68;;;4.93;;
58484;SDS011;44268;43.138;0.072;2022-08-01T13:42:53;5.18;;;4.85;;
58484;SDS011;44268;43.138;0.072;2022-08-01T13:45:21;5.60;;;5.10;;
58484;SDS011;44268;43.138;0.072;2022-08-01T13:47:47;70.75;;;16.58;;
58484;SDS011;44268;43.138;0.072;2022-08-01T13:50:13;19.33;;;7.90;;
58484;SDS011;44268;43.138;0.072;2022-08-01T13:52:39;5.97;;;5.40;;
58484;SDS011;44268;43.138;0.072;2022-08-01T13:55:06;6.15;;;5.18;;
58484;SDS011;44268;43.138;0.072;2022-08-01T13:57:32;5.10;;;4.70;;
58484;SDS011;44268;43.138;0.072;2022-08-01T13:59:58;5.20;;;4.57;;
58484;SDS011;44268;43.138;0.072;2022-08-01T14:02:25;8.07;;;5.88;;
58484;SDS011;44268;43.138;0.072;2022-08-01T14:04:52;6.53;;;5.50;;
58484;SDS011;44268;43.138;0.072;2022-08-01T14:07:19;5.47;;;4.93;;
58484;SDS011;44268;43.138;0.072;2022-08-01T14:09:45;5.45;;;5.00;;
58484;SDS011;44268;43.138;0.072;2022-08-01T14:12:11;6.13;;;5.35;;
58484;SDS011;44268;43.138;0.072;2022-08-01T14:14:37;5.10;;;4.70;;
58484;SDS011;44268;43.138;0.072;2022-08-01T14:17:03;5.25;;;4.85;;
58484;SDS011;44268;43.138;0.072;2022-08-01T14:19:30;5.90;;;4.88;;
58484;SDS011;44268;43.138;0.072;2022-08-01T14:21:56;5.45;;;4.93;;
58484;SDS011;44268;43.138;0.072;2022-08-01T14:24:22;5.53;;;5.03;;
58484;SDS011;44268;43.138;0.072;2022-08-01T14:26:49;4.90;;;4.50;;
58484;SDS011;44268;43.138;0.072;2022-08-01T14:29:15;6.03;;;5.03;;
58484;SDS011;44268;43.138;0.072;2022-08-01T14:31:41;5.43;;;4.93;;
58484;SDS011;44268;43.138;0.072;2022-08-01T14:34:07;5.75;;;5.25;;
58484;SDS011;44268;43.138;0.072;2022-08-01T14:36:33;5.60;;;5.18;;
58484;SDS011;44268;43.138;0.072;2022-08-01T14:38:59;6.97;;;5.88;;
58484;SDS011;44268;43.138;0.072;2022-08-01T14:41:26;6.30;;;4.70;;
58484;SDS011;44268;43.138;0.072;2022-08-01T14:43:52;5.25;;;4.85;;
58484;SDS011;44268;43.138;0.072;2022-08-01T14:46:18;5.00;;;4.60;;
58484;SDS011;44268;43.138;0.072;2022-08-01T14:48:44;6.43;;;5.15;;
58484;SDS011;44268;43.138;0.072;2022-08-01T14:51:10;5.32;;;4.82;;
58484;SDS011;44268;43.138;0.072;2022-08-01T14:53:36;6.55;;;5.07;;
58484;SDS011;44268;43.138;0.072;2022-08-01T14:56:03;6.53;;;5.18;;
58484;SDS011;44268;43.138;0.072;2022-08-01T14:58:29;6.50;;;5.03;;
58484;SDS011;44268;43.138;0.072;2022-08-01T15:00:56;5.50;;;4.80;;
58484;SDS011;44268;43.138;0.072;2022-08-01T15:03:22;5.28;;;4.80;;
58484;SDS011;44268;43.138;0.072;2022-08-01T15:05:48;5.45;;;4.88;;
58484;SDS011;44268;43.138;0.072;2022-08-01T15:08:14;14.48;;;6.30;;
58484;SDS011;44268;43.138;0.072;2022-08-01T15:10:40;4.90;;;4.50;;
58484;SDS011;44268;43.138;0.072;2022-08-01T15:13:06;5.32;;;4.93;;
58484;SDS011;44268;43.138;0.072;2022-08-01T15:15:32;5.18;;;4.78;;
58484;SDS011;44268;43.138;0.072;2022-08-01T15:17:58;5.07;;;4.68;;
58484;SDS011;44268;43.138;0.072;2022-08-01T15:20:25;5.25;;;4.75;;
58484;SDS011;44268;43.138;0.072;2022-08-01T15:22:52;5.15;;;4.70;;
58484;SDS011;44268;43.138;0.072;2022-08-01T15:25:18;6.65;;;4.80;;
58484;SDS011;44268;43.138;0.072;2022-08-01T15:27:44;5.22;;;4.72;;
58484;SDS011;44268;43.138;0.072;2022-08-01T15:30:11;5.13;;;4.72;;